sensor_id;sensor_type;location;lat;lon;timestamp;P1;durP1;ratioP1;P2;durP2;ratioP2
14530;SDS011;7352;50.866;4.366;2023-02-13T00:00:45;0.20;;;0.20;;
14530;SDS011;7352;50.866;4.366;2023-02-13T00:03:13;0.20;;;0.20;;
14530;SDS011;7352;50.866;4.366;2023-02-13T00:05:41;0.20;;;0.20;;
14530;SDS011;7352;50.866;4.366;2023-02-13T00:08:08;0.20;;;0.20;;
14530;SDS011;7352;50.866;4.366;2023-02-13T00:10:35;0.20;;;0.20;;
14530;SDS011;7352;50.866;4.366;2023-02-13T00:13:02;0.20;;;0.20;;
14530;SDS011;7352;50.866;4.366;2023-02-13T00:15:29;0.20;;;0.20;;
14530;SDS011;7352;50.866;4.366;2023-02-13T00:17:58;0.20;;;0.20;;
14530;SDS011;7352;50.866;4.366;2023-02-13T00:20:25;0.20;;;0.20;;
14530;SDS011;7352;50.866;4.366;2023-02-13T00:22:52;0.20;;;0.20;;
14530;SDS011;7352;50.866;4.366;2023-02-13T00:25:19;0.20;;;0.20;;
14530;SDS011;7352;50.866;4.366;2023-02-13T00:27:49;0.20;;;0.20;;
14530;SDS011;7352;50.866;4.366;2023-02-13T00:30:18;0.20;;;0.20;;
14530;SDS011;7352;50.866;4.366;2023-02-13T00:32:47;0.20;;;0.20;;
14530;SDS011;7352;50.866;4.366;2023-02-13T00:35:16;0.20;;;0.20;;
14530;SDS011;7352;50.866;4.366;2023-02-13T00:37:43;0.20;;;0.20;;
14530;SDS011;7352;50.866;4.366;2023-02-13T00:40:11;0.20;;;0.20;;
14530;SDS011;7352;50.866;4.366;2023-02-13T00:42:38;0.20;;;0.20;;
14530;SDS011;7352;50.866;4.366;2023-02-13T00:45:05;0.20;;;0.20;;
14530;SDS011;7352;50.866;4.366;2023-02-13T00:47:33;0.20;;;0.20;;
14530;SDS011;7352;50.866;4.366;2023-02-13T00:50:03;0.20;;;0.20;;
14530;SDS011;7352;50.866;4.366;2023-02-13T00:52:33;0.20;;;0.20;;
14530;SDS011;7352;50.866;4.366;2023-02-13T00:55:00;0.20;;;0.20;;
14530;SDS011;7352;50.866;4.366;2023-02-13T00:57:28;0.20;;;0.20;;
14530;SDS011;7352;50.866;4.366;2023-02-13T00:59:55;0.20;;;0.20;;
14530;SDS011;7352;50.866;4.366;2023-02-13T01:02:25;0.20;;;0.20;;
14530;SDS011;7352;50.866;4.366;2023-02-13T01:04:52;0.20;;;0.20;;
14530;SDS011;7352;50.866;4.366;2023-02-13T01:07:20;0.20;;;0.20;;
14530;SDS011;7352;50.866;4.366;2023-02-13T01:09:48;0.20;;;0.20;;
14530;SDS011;7352;50.866;4.366;2023-02-13T01:12:15;0.20;;;0.20;;
14530;SDS011;7352;50.866;4.366;2023-02-13T01:14:42;0.20;;;0.20;;
14530;SDS011;7352;50.866;4.366;2023-02-13T01:17:09;0.20;;;0.20;;
14530;SDS011;7352;50.866;4.366;2023-02-13T01:19:39;0.20;;;0.20;;
14530;SDS011;7352;50.866;4.366;2023-02-13T01:22:06;0.20;;;0.20;;
14530;SDS011;7352;50.866;4.366;2023-02-13T01:24:33;0.20;;;0.20;;
14530;SDS011;7352;50.866;4.366;2023-02-13T01:27:02;0.20;;;0.20;;
14530;SDS011;7352;50.866;4.366;2023-02-13T01:29:29;0.20;;;0.20;;
14530;SDS011;7352;50.866;4.366;2023-02-13T01:31:55;0.30;;;0.30;;
14530;SDS011;7352;50.866;4.366;2023-02-13T01:34:22;0.20;;;0.20;;
14530;SDS011;7352;50.866;4.366;2023-02-13T01:36:49;0.20;;;0.20;;
14530;SDS011;7352;50.866;4.366;2023-02-13T01:39:16;0.20;;;0.20;;
14530;SDS011;7352;50.866;4.366;2023-02-13T01:41:45;0.30;;;0.30;;
14530;SDS011;7352;50.866;4.366;2023-02-13T01:47:14;0.20;;;0.20;;
14530;SDS011;7352;50.866;4.366;2023-02-13T01:49:43;0.20;;;0.20;;
14530;SDS011;7352;50.866;4.366;2023-02-13T01:52:12;0.20;;;0.20;;
14530;SDS011;7352;50.866;4.366;2023-02-13T01:54:41;0.20;;;0.20;;
14530;SDS011;7352;50.866;4.366;2023-02-13T01:57:09;0.20;;;0.20;;
14530;SDS011;7352;50.866;4.366;2023-02-13T01:59:41;0.20;;;0.20;;
14530;SDS011;7352;50.866;4.366;2023-02-13T02:02:14;0.20;;;0.20;;
14530;SDS011;7352;50.866;4.366;2023-02-13T02:04:42;0.20;;;0.20;;
14530;SDS011;7352;50.866;4.366;2023-02-13T02:07:11;0.20;;;0.20;;
14530;SDS011;7352;50.866;4.366;2023-02-13T02:09:43;0.20;;;0.20;;
14530;SDS011;7352;50.866;4.366;2023-02-13T02:12:12;0.20;;;0.20;;
14530;SDS011;7352;50.866;4.366;2023-02-13T02:14:45;0.20;;;0.20;;
14530;SDS011;7352;50.866;4.366;2023-02-13T02:17:12;0.20;;;0.20;;
14530;SDS011;7352;50.866;4.366;2023-02-13T02:19:48;0.20;;;0.20;;
14530;SDS011;7352;50.866;4.366;2023-02-13T02:22:33;0.20;;;0.20;;
14530;SDS011;7352;50.866;4.366;2023-02-13T02:28:19;0.20;;;0.20;;
14530;SDS011;7352;50.866;4.366;2023-02-13T02:31:24;0.20;;;0.20;;
14530;SDS011;7352;50.866;4.366;2023-02-13T02:34:11;0.20;;;0.20;;
14530;SDS011;7352;50.866;4.366;2023-02-13T02:36:52;0.20;;;0.20;;
14530;SDS011;7352;50.866;4.366;2023-02-13T02:39:32;0.20;;;0.20;;
14530;SDS011;7352;50.866;4.366;2023-02-13T02:42:11;0.20;;;0.20;;
14530;SDS011;7352;50.866;4.366;2023-02-13T02:44:49;0.20;;;0.20;;
14530;SDS011;7352;50.866;4.366;2023-02-13T02:47:30;0.20;;;0.20;;
14530;SDS011;7352;50.866;4.366;2023-02-13T02:50:25;0.20;;;0.20;;
14530;SDS011;7352;50.866;4.366;2023-02-13T02:53:04;0.20;;;0.20;;
14530;SDS011;7352;50.866;4.366;2023-02-13T02:55:37;0.30;;;0.30;;
14530;SDS011;7352;50.866;4.366;2023-02-13T02:58:10;0.20;;;0.20;;
14530;SDS011;7352;50.866;4.366;2023-02-13T03:01:01;0.20;;;0.20;;
14530;SDS011;7352;50.866;4.366;2023-02-13T03:03:49;0.20;;;0.20;;
14530;SDS011;7352;50.866;4.366;2023-02-13T03:06:35;0.20;;;0.20;;
14530;SDS011;7352;50.866;4.366;2023-02-13T03:09:08;0.20;;;0.20;;
14530;SDS011;7352;50.866;4.366;2023-02-13T03:11:56;0.30;;;0.30;;
14530;SDS011;7352;50.866;4.366;2023-02-13T03:14:41;0.20;;;0.20;;
14530;SDS011;7352;50.866;4.366;2023-02-13T03:17:09;0.20;;;0.20;;
14530;SDS011;7352;50.866;4.366;2023-02-13T03:20:00;0.30;;;0.30;;
14530;SDS011;7352;50.866;4.366;2023-02-13T03:22:59;0.17;;;0.17;;
14530;SDS011;7352;50.866;4.366;2023-02-13T03:25:34;0.20;;;0.20;;
14530;SDS011;7352;50.866;4.366;2023-02-13T03:28:10;0.20;;;0.20;;
14530;SDS011;7352;50.866;4.366;2023-02-13T03:31:01;0.20;;;0.20;;
14530;SDS011;7352;50.866;4.366;2023-02-13T03:33:44;0.20;;;0.20;;
14530;SDS011;7352;50.866;4.366;2023-02-13T03:36:24;0.30;;;0.30;;
14530;SDS011;7352;50.866;4.366;2023-02-13T03:39:17;0.50;;;0.50;;
14530;SDS011;7352;50.866;4.366;2023-02-13T03:41:48;0.33;;;0.33;;
14530;SDS011;7352;50.866;4.366;2023-02-13T03:44:21;0.30;;;0.30;;
14530;SDS011;7352;50.866;4.366;2023-02-13T03:46:53;0.30;;;0.30;;
14530;SDS011;7352;50.866;4.366;2023-02-13T03:49:23;0.30;;;0.30;;
14530;SDS011;7352;50.866;4.366;2023-02-13T03:52:15;0.40;;;0.40;;
14530;SDS011;7352;50.866;4.366;2023-02-13T03:54:48;0.40;;;0.40;;
14530;SDS011;7352;50.866;4.366;2023-02-13T03:57:35;0.30;;;0.30;;
14530;SDS011;7352;50.866;4.366;2023-02-13T04:00:23;0.33;;;0.33;;
14530;SDS011;7352;50.866;4.366;2023-02-13T04:02:55;0.20;;;0.20;;
14530;SDS011;7352;50.866;4.366;2023-02-13T04:05:27;0.30;;;0.30;;
14530;SDS011;7352;50.866;4.366;2023-02-13T04:07:58;0.50;;;0.50;;
14530;SDS011;7352;50.866;4.366;2023-02-13T04:10:25;0.40;;;0.40;;
14530;SDS011;7352;50.866;4.366;2023-02-13T04:12:59;0.40;;;0.40;;
14530;SDS011;7352;50.866;4.366;2023-02-13T04:15:30;0.40;;;0.40;;
14530;SDS011;7352;50.866;4.366;2023-02-13T04:18:02;0.30;;;0.30;;
14530;SDS011;7352;50.866;4.366;2023-02-13T04:20:33;0.40;;;0.40;;
14530;SDS011;7352;50.866;4.366;2023-02-13T04:23:05;0.30;;;0.30;;
14530;SDS011;7352;50.866;4.366;2023-02-13T04:25:34;0.40;;;0.40;;
14530;SDS011;7352;50.866;4.366;2023-02-13T04:28:02;0.20;;;0.20;;
14530;SDS011;7352;50.866;4.366;2023-02-13T04:30:29;0.30;;;0.30;;
14530;SDS011;7352;50.866;4.366;2023-02-13T04:32:58;0.30;;;0.30;;
14530;SDS011;7352;50.866;4.366;2023-02-13T04:35:26;0.30;;;0.30;;
14530;SDS011;7352;50.866;4.366;2023-02-13T04:37:53;0.20;;;0.20;;
14530;SDS011;7352;50.866;4.366;2023-02-13T04:40:22;0.20;;;0.20;;
14530;SDS011;7352;50.866;4.366;2023-02-13T04:42:50;0.30;;;0.30;;
14530;SDS011;7352;50.866;4.366;2023-02-13T04:45:18;0.20;;;0.20;;
14530;SDS011;7352;50.866;4.366;2023-02-13T04:47:48;0.20;;;0.20;;
14530;SDS011;7352;50.866;4.366;2023-02-13T04:50:16;0.20;;;0.20;;
14530;SDS011;7352;50.866;4.366;2023-02-13T04:52:43;0.30;;;0.30;;
14530;SDS011;7352;50.866;4.366;2023-02-13T04:55:10;0.20;;;0.20;;
14530;SDS011;7352;50.866;4.366;2023-02-13T04:57:39;0.20;;;0.20;;
14530;SDS011;7352;50.866;4.366;2023-02-13T05:00:06;0.30;;;0.30;;
14530;SDS011;7352;50.866;4.366;2023-02-13T05:02:35;0.20;;;0.20;;
14530;SDS011;7352;50.866;4.366;2023-02-13T05:05:02;0.20;;;0.20;;
14530;SDS011;7352;50.866;4.366;2023-02-13T05:07:29;0.23;;;0.23;;
14530;SDS011;7352;50.866;4.366;2023-02-13T05:09:55;0.20;;;0.20;;
14530;SDS011;7352;50.866;4.366;2023-02-13T05:12:22;0.20;;;0.20;;
14530;SDS011;7352;50.866;4.366;2023-02-13T05:14:51;0.20;;;0.20;;
14530;SDS011;7352;50.866;4.366;2023-02-13T05:17:18;0.30;;;0.30;;
14530;SDS011;7352;50.866;4.366;2023-02-13T05:19:45;0.30;;;0.30;;
14530;SDS011;7352;50.866;4.366;2023-02-13T05:22:11;0.30;;;0.30;;
14530;SDS011;7352;50.866;4.366;2023-02-13T05:24:56;0.30;;;0.30;;
14530;SDS011;7352;50.866;4.366;2023-02-13T05:27:26;0.40;;;0.40;;
14530;SDS011;7352;50.866;4.366;2023-02-13T05:29:57;0.70;;;0.70;;
14530;SDS011;7352;50.866;4.366;2023-02-13T05:32:24;0.60;;;0.60;;
14530;SDS011;7352;50.866;4.366;2023-02-13T05:34:51;0.60;;;0.60;;
14530;SDS011;7352;50.866;4.366;2023-02-13T05:37:18;0.30;;;0.30;;
14530;SDS011;7352;50.866;4.366;2023-02-13T05:39:46;0.40;;;0.40;;
14530;SDS011;7352;50.866;4.366;2023-02-13T05:42:13;0.30;;;0.30;;
14530;SDS011;7352;50.866;4.366;2023-02-13T05:44:40;0.50;;;0.50;;
14530;SDS011;7352;50.866;4.366;2023-02-13T05:47:08;0.40;;;0.40;;
14530;SDS011;7352;50.866;4.366;2023-02-13T05:49:35;0.30;;;0.30;;
14530;SDS011;7352;50.866;4.366;2023-02-13T05:52:02;0.20;;;0.20;;
14530;SDS011;7352;50.866;4.366;2023-02-13T05:54:31;0.30;;;0.30;;
14530;SDS011;7352;50.866;4.366;2023-02-13T05:56:58;0.27;;;0.27;;
14530;SDS011;7352;50.866;4.366;2023-02-13T05:59:24;0.20;;;0.20;;
14530;SDS011;7352;50.866;4.366;2023-02-13T06:01:52;0.20;;;0.20;;
14530;SDS011;7352;50.866;4.366;2023-02-13T06:04:20;0.20;;;0.20;;
14530;SDS011;7352;50.866;4.366;2023-02-13T06:06:47;0.20;;;0.20;;
14530;SDS011;7352;50.866;4.366;2023-02-13T06:09:14;0.20;;;0.20;;
14530;SDS011;7352;50.866;4.366;2023-02-13T06:11:41;0.30;;;0.30;;
14530;SDS011;7352;50.866;4.366;2023-02-13T06:14:08;0.20;;;0.20;;
14530;SDS011;7352;50.866;4.366;2023-02-13T06:16:36;0.30;;;0.30;;
14530;SDS011;7352;50.866;4.366;2023-02-13T06:19:03;0.27;;;0.27;;
14530;SDS011;7352;50.866;4.366;2023-02-13T06:21:31;0.20;;;0.20;;
14530;SDS011;7352;50.866;4.366;2023-02-13T06:24:02;0.20;;;0.20;;
14530;SDS011;7352;50.866;4.366;2023-02-13T06:26:29;0.20;;;0.20;;
14530;SDS011;7352;50.866;4.366;2023-02-13T06:28:56;0.20;;;0.20;;
14530;SDS011;7352;50.866;4.366;2023-02-13T06:31:23;0.20;;;0.20;;
14530;SDS011;7352;50.866;4.366;2023-02-13T06:33:50;0.20;;;0.20;;
14530;SDS011;7352;50.866;4.366;2023-02-13T06:36:17;0.30;;;0.30;;
14530;SDS011;7352;50.866;4.366;2023-02-13T06:38:45;0.20;;;0.20;;
14530;SDS011;7352;50.866;4.366;2023-02-13T06:41:12;0.30;;;0.30;;
14530;SDS011;7352;50.866;4.366;2023-02-13T06:43:39;0.20;;;0.20;;
14530;SDS011;7352;50.866;4.366;2023-02-13T06:46:06;0.30;;;0.30;;
14530;SDS011;7352;50.866;4.366;2023-02-13T06:48:34;0.20;;;0.20;;
14530;SDS011;7352;50.866;4.366;2023-02-13T06:51:01;0.30;;;0.30;;
14530;SDS011;7352;50.866;4.366;2023-02-13T06:53:30;0.23;;;0.23;;
14530;SDS011;7352;50.866;4.366;2023-02-13T06:56:01;0.20;;;0.20;;
14530;SDS011;7352;50.866;4.366;2023-02-13T06:58:30;0.30;;;0.30;;
14530;SDS011;7352;50.866;4.366;2023-02-13T07:00:58;0.30;;;0.30;;
14530;SDS011;7352;50.866;4.366;2023-02-13T07:03:25;0.20;;;0.20;;
14530;SDS011;7352;50.866;4.366;2023-02-13T07:05:52;0.20;;;0.20;;
14530;SDS011;7352;50.866;4.366;2023-02-13T07:08:19;0.30;;;0.30;;
14530;SDS011;7352;50.866;4.366;2023-02-13T07:10:47;0.30;;;0.30;;
14530;SDS011;7352;50.866;4.366;2023-02-13T07:13:17;0.30;;;0.30;;
14530;SDS011;7352;50.866;4.366;2023-02-13T07:15:44;0.30;;;0.30;;
14530;SDS011;7352;50.866;4.366;2023-02-13T07:18:11;0.20;;;0.20;;
14530;SDS011;7352;50.866;4.366;2023-02-13T07:20:38;0.20;;;0.20;;
14530;SDS011;7352;50.866;4.366;2023-02-13T07:23:06;0.30;;;0.30;;
14530;SDS011;7352;50.866;4.366;2023-02-13T07:25:33;0.40;;;0.40;;
14530;SDS011;7352;50.866;4.366;2023-02-13T07:28:00;0.30;;;0.30;;
14530;SDS011;7352;50.866;4.366;2023-02-13T07:30:30;0.30;;;0.30;;
14530;SDS011;7352;50.866;4.366;2023-02-13T07:32:58;0.20;;;0.20;;
14530;SDS011;7352;50.866;4.366;2023-02-13T07:35:26;0.23;;;0.23;;
14530;SDS011;7352;50.866;4.366;2023-02-13T07:37:55;0.20;;;0.20;;
14530;SDS011;7352;50.866;4.366;2023-02-13T07:40:23;0.20;;;0.20;;
14530;SDS011;7352;50.866;4.366;2023-02-13T07:42:50;0.20;;;0.20;;
14530;SDS011;7352;50.866;4.366;2023-02-13T07:45:17;0.20;;;0.20;;
14530;SDS011;7352;50.866;4.366;2023-02-13T07:47:45;0.20;;;0.20;;
14530;SDS011;7352;50.866;4.366;2023-02-13T07:50:12;0.20;;;0.20;;
14530;SDS011;7352;50.866;4.366;2023-02-13T07:52:39;0.30;;;0.30;;
14530;SDS011;7352;50.866;4.366;2023-02-13T07:55:06;0.20;;;0.20;;
14530;SDS011;7352;50.866;4.366;2023-02-13T07:57:35;0.20;;;0.20;;
14530;SDS011;7352;50.866;4.366;2023-02-13T08:00:02;0.20;;;0.20;;
14530;SDS011;7352;50.866;4.366;2023-02-13T08:02:30;0.20;;;0.20;;
14530;SDS011;7352;50.866;4.366;2023-02-13T08:04:58;0.20;;;0.20;;
14530;SDS011;7352;50.866;4.366;2023-02-13T08:07:25;0.20;;;0.20;;
14530;SDS011;7352;50.866;4.366;2023-02-13T08:09:52;0.30;;;0.30;;
14530;SDS011;7352;50.866;4.366;2023-02-13T08:12:36;0.20;;;0.20;;
14530;SDS011;7352;50.866;4.366;2023-02-13T08:15:04;0.20;;;0.20;;
14530;SDS011;7352;50.866;4.366;2023-02-13T08:17:32;0.20;;;0.20;;
14530;SDS011;7352;50.866;4.366;2023-02-13T08:20:01;0.20;;;0.20;;
14530;SDS011;7352;50.866;4.366;2023-02-13T08:22:28;0.30;;;0.30;;
14530;SDS011;7352;50.866;4.366;2023-02-13T08:24:55;0.20;;;0.20;;
14530;SDS011;7352;50.866;4.366;2023-02-13T08:27:22;0.20;;;0.20;;
14530;SDS011;7352;50.866;4.366;2023-02-13T08:29:49;0.27;;;0.27;;
14530;SDS011;7352;50.866;4.366;2023-02-13T08:32:17;0.20;;;0.20;;
14530;SDS011;7352;50.866;4.366;2023-02-13T08:34:44;0.30;;;0.30;;
14530;SDS011;7352;50.866;4.366;2023-02-13T08:37:15;0.20;;;0.20;;
14530;SDS011;7352;50.866;4.366;2023-02-13T08:39:42;0.20;;;0.20;;
14530;SDS011;7352;50.866;4.366;2023-02-13T08:42:10;0.20;;;0.20;;
14530;SDS011;7352;50.866;4.366;2023-02-13T08:44:37;0.20;;;0.20;;
14530;SDS011;7352;50.866;4.366;2023-02-13T08:47:06;0.20;;;0.20;;
14530;SDS011;7352;50.866;4.366;2023-02-13T08:49:42;0.20;;;0.20;;
14530;SDS011;7352;50.866;4.366;2023-02-13T08:52:09;0.20;;;0.20;;
14530;SDS011;7352;50.866;4.366;2023-02-13T08:54:39;0.10;;;0.10;;
14530;SDS011;7352;50.866;4.366;2023-02-13T08:57:08;0.20;;;0.20;;
14530;SDS011;7352;50.866;4.366;2023-02-13T08:59:38;0.20;;;0.20;;
14530;SDS011;7352;50.866;4.366;2023-02-13T09:02:08;0.20;;;0.20;;
14530;SDS011;7352;50.866;4.366;2023-02-13T09:04:38;0.20;;;0.20;;
14530;SDS011;7352;50.866;4.366;2023-02-13T09:07:05;0.20;;;0.20;;
14530;SDS011;7352;50.866;4.366;2023-02-13T09:09:33;0.20;;;0.20;;
14530;SDS011;7352;50.866;4.366;2023-02-13T09:12:01;0.20;;;0.20;;
14530;SDS011;7352;50.866;4.366;2023-02-13T09:14:28;0.20;;;0.20;;
14530;SDS011;7352;50.866;4.366;2023-02-13T09:16:55;0.20;;;0.20;;
14530;SDS011;7352;50.866;4.366;2023-02-13T09:19:24;0.17;;;0.17;;
14530;SDS011;7352;50.866;4.366;2023-02-13T09:21:52;0.20;;;0.20;;
14530;SDS011;7352;50.866;4.366;2023-02-13T09:24:25;0.20;;;0.20;;
14530;SDS011;7352;50.866;4.366;2023-02-13T09:26:52;0.20;;;0.20;;
14530;SDS011;7352;50.866;4.366;2023-02-13T09:29:22;0.10;;;0.10;;
14530;SDS011;7352;50.866;4.366;2023-02-13T09:31:49;0.13;;;0.13;;
14530;SDS011;7352;50.866;4.366;2023-02-13T09:34:16;0.10;;;0.10;;
14530;SDS011;7352;50.866;4.366;2023-02-13T09:36:43;0.20;;;0.20;;
14530;SDS011;7352;50.866;4.366;2023-02-13T09:39:11;0.20;;;0.20;;
14530;SDS011;7352;50.866;4.366;2023-02-13T09:41:39;0.20;;;0.20;;
14530;SDS011;7352;50.866;4.366;2023-02-13T09:44:12;0.20;;;0.20;;
14530;SDS011;7352;50.866;4.366;2023-02-13T09:47:00;0.20;;;0.20;;
14530;SDS011;7352;50.866;4.366;2023-02-13T09:49:32;0.20;;;0.20;;
14530;SDS011;7352;50.866;4.366;2023-02-13T09:52:04;0.20;;;0.20;;
14530;SDS011;7352;50.866;4.366;2023-02-13T09:54:35;0.20;;;0.20;;
14530;SDS011;7352;50.866;4.366;2023-02-13T09:57:04;0.20;;;0.20;;
14530;SDS011;7352;50.866;4.366;2023-02-13T09:59:44;0.10;;;0.10;;
14530;SDS011;7352;50.866;4.366;2023-02-13T10:05:32;0.10;;;0.10;;
14530;SDS011;7352;50.866;4.366;2023-02-13T10:08:11;0.13;;;0.13;;
14530;SDS011;7352;50.866;4.366;2023-02-13T10:10:50;0.20;;;0.20;;
14530;SDS011;7352;50.866;4.366;2023-02-13T10:13:34;0.10;;;0.10;;
14530;SDS011;7352;50.866;4.366;2023-02-13T10:16:15;0.20;;;0.20;;
14530;SDS011;7352;50.866;4.366;2023-02-13T10:18:47;0.20;;;0.20;;
14530;SDS011;7352;50.866;4.366;2023-02-13T10:21:18;0.20;;;0.20;;
14530;SDS011;7352;50.866;4.366;2023-02-13T10:23:50;0.20;;;0.20;;
14530;SDS011;7352;50.866;4.366;2023-02-13T10:26:25;0.10;;;0.10;;
14530;SDS011;7352;50.866;4.366;2023-02-13T10:29:11;0.20;;;0.20;;
14530;SDS011;7352;50.866;4.366;2023-02-13T10:32:01;0.20;;;0.20;;
14530;SDS011;7352;50.866;4.366;2023-02-13T10:34:45;0.20;;;0.20;;
14530;SDS011;7352;50.866;4.366;2023-02-13T10:37:26;0.20;;;0.20;;
14530;SDS011;7352;50.866;4.366;2023-02-13T10:39:54;0.10;;;0.10;;
14530;SDS011;7352;50.866;4.366;2023-02-13T10:42:22;0.20;;;0.20;;
14530;SDS011;7352;50.866;4.366;2023-02-13T10:45:02;0.20;;;0.20;;
14530;SDS011;7352;50.866;4.366;2023-02-13T10:47:50;0.10;;;0.10;;
14530;SDS011;7352;50.866;4.366;2023-02-13T10:50:44;0.10;;;0.10;;
14530;SDS011;7352;50.866;4.366;2023-02-13T10:53:25;0.10;;;0.10;;
14530;SDS011;7352;50.866;4.366;2023-02-13T10:56:10;0.10;;;0.10;;
14530;SDS011;7352;50.866;4.366;2023-02-13T10:58:56;0.10;;;0.10;;
14530;SDS011;7352;50.866;4.366;2023-02-13T11:01:41;0.10;;;0.10;;
14530;SDS011;7352;50.866;4.366;2023-02-13T11:04:20;0.10;;;0.10;;
14530;SDS011;7352;50.866;4.366;2023-02-13T11:06:52;0.20;;;0.20;;
14530;SDS011;7352;50.866;4.366;2023-02-13T11:09:22;0.20;;;0.20;;
14530;SDS011;7352;50.866;4.366;2023-02-13T11:11:50;0.10;;;0.10;;
14530;SDS011;7352;50.866;4.366;2023-02-13T11:14:28;0.10;;;0.10;;
14530;SDS011;7352;50.866;4.366;2023-02-13T11:17:05;0.20;;;0.20;;
14530;SDS011;7352;50.866;4.366;2023-02-13T11:19:45;0.20;;;0.20;;
14530;SDS011;7352;50.866;4.366;2023-02-13T11:22:36;0.20;;;0.20;;
14530;SDS011;7352;50.866;4.366;2023-02-13T11:25:16;0.10;;;0.10;;
14530;SDS011;7352;50.866;4.366;2023-02-13T11:30:30;0.20;;;0.20;;
14530;SDS011;7352;50.866;4.366;2023-02-13T11:33:05;0.10;;;0.10;;
14530;SDS011;7352;50.866;4.366;2023-02-13T11:36:02;0.10;;;0.10;;
14530;SDS011;7352;50.866;4.366;2023-02-13T11:41:29;0.20;;;0.20;;
14530;SDS011;7352;50.866;4.366;2023-02-13T11:44:02;0.20;;;0.20;;
14530;SDS011;7352;50.866;4.366;2023-02-13T11:46:30;0.10;;;0.10;;
14530;SDS011;7352;50.866;4.366;2023-02-13T11:49:14;0.10;;;0.10;;
14530;SDS011;7352;50.866;4.366;2023-02-13T11:51:56;0.20;;;0.20;;
14530;SDS011;7352;50.866;4.366;2023-02-13T11:54:29;0.10;;;0.10;;
14530;SDS011;7352;50.866;4.366;2023-02-13T11:57:00;0.10;;;0.10;;
14530;SDS011;7352;50.866;4.366;2023-02-13T11:59:45;0.10;;;0.10;;
14530;SDS011;7352;50.866;4.366;2023-02-13T12:02:18;0.20;;;0.20;;
14530;SDS011;7352;50.866;4.366;2023-02-13T12:04:46;0.10;;;0.10;;
14530;SDS011;7352;50.866;4.366;2023-02-13T12:07:19;0.17;;;0.17;;
14530;SDS011;7352;50.866;4.366;2023-02-13T12:09:52;0.10;;;0.10;;
14530;SDS011;7352;50.866;4.366;2023-02-13T12:12:26;0.10;;;0.10;;
14530;SDS011;7352;50.866;4.366;2023-02-13T12:14:58;0.10;;;0.10;;
14530;SDS011;7352;50.866;4.366;2023-02-13T12:17:31;0.13;;;0.13;;
14530;SDS011;7352;50.866;4.366;2023-02-13T12:20:00;0.10;;;0.10;;
14530;SDS011;7352;50.866;4.366;2023-02-13T12:22:31;0.10;;;0.10;;
14530;SDS011;7352;50.866;4.366;2023-02-13T12:28:13;0.20;;;0.20;;
14530;SDS011;7352;50.866;4.366;2023-02-13T12:33:50;0.20;;;0.20;;
14530;SDS011;7352;50.866;4.366;2023-02-13T12:36:36;0.10;;;0.10;;
14530;SDS011;7352;50.866;4.366;2023-02-13T12:39:16;0.10;;;0.10;;
14530;SDS011;7352;50.866;4.366;2023-02-13T12:42:01;0.20;;;0.20;;
14530;SDS011;7352;50.866;4.366;2023-02-13T12:44:46;0.10;;;0.10;;
14530;SDS011;7352;50.866;4.366;2023-02-13T12:47:28;0.10;;;0.10;;
14530;SDS011;7352;50.866;4.366;2023-02-13T12:53:17;0.10;;;0.10;;
14530;SDS011;7352;50.866;4.366;2023-02-13T12:59:02;0.10;;;0.10;;
14530;SDS011;7352;50.866;4.366;2023-02-13T13:01:39;0.10;;;0.10;;
14530;SDS011;7352;50.866;4.366;2023-02-13T13:04:27;0.20;;;0.20;;
14530;SDS011;7352;50.866;4.366;2023-02-13T13:07:15;0.10;;;0.10;;
14530;SDS011;7352;50.866;4.366;2023-02-13T13:10:02;0.10;;;0.10;;
14530;SDS011;7352;50.866;4.366;2023-02-13T13:12:49;0.10;;;0.10;;
14530;SDS011;7352;50.866;4.366;2023-02-13T13:15:26;0.10;;;0.10;;
14530;SDS011;7352;50.866;4.366;2023-02-13T13:18:02;0.20;;;0.20;;
14530;SDS011;7352;50.866;4.366;2023-02-13T13:21:00;0.10;;;0.10;;
14530;SDS011;7352;50.866;4.366;2023-02-13T13:23:39;0.10;;;0.10;;
14530;SDS011;7352;50.866;4.366;2023-02-13T13:26:20;0.20;;;0.20;;
14530;SDS011;7352;50.866;4.366;2023-02-13T13:28:58;0.10;;;0.10;;
14530;SDS011;7352;50.866;4.366;2023-02-13T13:31:31;0.20;;;0.20;;
14530;SDS011;7352;50.866;4.366;2023-02-13T13:34:12;0.20;;;0.20;;
14530;SDS011;7352;50.866;4.366;2023-02-13T13:36:47;0.10;;;0.10;;
14530;SDS011;7352;50.866;4.366;2023-02-13T13:39:23;0.10;;;0.10;;
14530;SDS011;7352;50.866;4.366;2023-02-13T13:42:00;0.10;;;0.10;;
14530;SDS011;7352;50.866;4.366;2023-02-13T13:44:47;0.10;;;0.10;;
14530;SDS011;7352;50.866;4.366;2023-02-13T13:47:31;0.10;;;0.10;;
14530;SDS011;7352;50.866;4.366;2023-02-13T13:50:16;0.10;;;0.10;;
14530;SDS011;7352;50.866;4.366;2023-02-13T13:58:34;0.10;;;0.10;;
14530;SDS011;7352;50.866;4.366;2023-02-13T14:03:55;0.10;;;0.10;;
14530;SDS011;7352;50.866;4.366;2023-02-13T14:06:26;0.10;;;0.10;;
14530;SDS011;7352;50.866;4.366;2023-02-13T14:15:02;0.10;;;0.10;;
14530;SDS011;7352;50.866;4.366;2023-02-13T14:17:46;0.10;;;0.10;;
14530;SDS011;7352;50.866;4.366;2023-02-13T14:23:21;0.10;;;0.10;;
14530;SDS011;7352;50.866;4.366;2023-02-13T14:26:17;0.10;;;0.10;;
14530;SDS011;7352;50.866;4.366;2023-02-13T14:31:30;0.10;;;0.10;;
14530;SDS011;7352;50.866;4.366;2023-02-13T14:33:59;0.17;;;0.17;;
14530;SDS011;7352;50.866;4.366;2023-02-13T14:36:31;0.10;;;0.10;;
14530;SDS011;7352;50.866;4.366;2023-02-13T14:39:00;0.10;;;0.10;;
14530;SDS011;7352;50.866;4.366;2023-02-13T14:41:43;0.10;;;0.10;;
14530;SDS011;7352;50.866;4.366;2023-02-13T14:44:15;0.10;;;0.10;;
14530;SDS011;7352;50.866;4.366;2023-02-13T14:46:46;0.10;;;0.10;;
14530;SDS011;7352;50.866;4.366;2023-02-13T14:49:19;0.10;;;0.10;;
14530;SDS011;7352;50.866;4.366;2023-02-13T14:51:52;0.10;;;0.10;;
14530;SDS011;7352;50.866;4.366;2023-02-13T14:54:23;0.10;;;0.10;;
14530;SDS011;7352;50.866;4.366;2023-02-13T14:56:58;0.10;;;0.10;;
14530;SDS011;7352;50.866;4.366;2023-02-13T14:59:34;0.10;;;0.10;;
14530;SDS011;7352;50.866;4.366;2023-02-13T15:02:22;0.10;;;0.10;;
14530;SDS011;7352;50.866;4.366;2023-02-13T15:04:55;0.10;;;0.10;;
14530;SDS011;7352;50.866;4.366;2023-02-13T15:07:27;0.10;;;0.10;;
14530;SDS011;7352;50.866;4.366;2023-02-13T15:09:59;0.10;;;0.10;;
14530;SDS011;7352;50.866;4.366;2023-02-13T15:12:32;0.10;;;0.10;;
14530;SDS011;7352;50.866;4.366;2023-02-13T15:15:02;0.10;;;0.10;;
14530;SDS011;7352;50.866;4.366;2023-02-13T15:17:48;0.10;;;0.10;;
14530;SDS011;7352;50.866;4.366;2023-02-13T15:20:18;0.10;;;0.10;;
14530;SDS011;7352;50.866;4.366;2023-02-13T15:22:50;0.10;;;0.10;;
14530;SDS011;7352;50.866;4.366;2023-02-13T15:25:21;0.10;;;0.10;;
14530;SDS011;7352;50.866;4.366;2023-02-13T15:27:51;0.10;;;0.10;;
14530;SDS011;7352;50.866;4.366;2023-02-13T15:30:20;0.10;;;0.10;;
14530;SDS011;7352;50.866;4.366;2023-02-13T15:32:53;0.10;;;0.10;;
14530;SDS011;7352;50.866;4.366;2023-02-13T15:35:23;0.10;;;0.10;;
14530;SDS011;7352;50.866;4.366;2023-02-13T15:37:54;0.10;;;0.10;;
14530;SDS011;7352;50.866;4.366;2023-02-13T15:40:24;0.13;;;0.13;;
14530;SDS011;7352;50.866;4.366;2023-02-13T15:42:55;0.10;;;0.10;;
14530;SDS011;7352;50.866;4.366;2023-02-13T15:45:23;0.10;;;0.10;;
14530;SDS011;7352;50.866;4.366;2023-02-13T15:47:54;0.10;;;0.10;;
14530;SDS011;7352;50.866;4.366;2023-02-13T15:50:26;0.10;;;0.10;;
14530;SDS011;7352;50.866;4.366;2023-02-13T15:55:54;0.10;;;0.10;;
14530;SDS011;7352;50.866;4.366;2023-02-13T15:58:25;0.10;;;0.10;;
14530;SDS011;7352;50.866;4.366;2023-02-13T16:03:29;0.10;;;0.10;;
14530;SDS011;7352;50.866;4.366;2023-02-13T16:06:00;0.10;;;0.10;;
14530;SDS011;7352;50.866;4.366;2023-02-13T16:08:33;0.10;;;0.10;;
14530;SDS011;7352;50.866;4.366;2023-02-13T16:11:09;0.10;;;0.10;;
14530;SDS011;7352;50.866;4.366;2023-02-13T16:13:50;0.10;;;0.10;;
14530;SDS011;7352;50.866;4.366;2023-02-13T16:16:26;0.20;;;0.20;;
14530;SDS011;7352;50.866;4.366;2023-02-13T16:18:55;0.10;;;0.10;;
14530;SDS011;7352;50.866;4.366;2023-02-13T16:21:26;0.10;;;0.10;;
14530;SDS011;7352;50.866;4.366;2023-02-13T16:24:04;0.10;;;0.10;;
14530;SDS011;7352;50.866;4.366;2023-02-13T16:26:33;0.10;;;0.10;;